Time;durP1;ratioP1;P1;durP2;ratioP2;P2;SDS_P1;SDS_P2;PMS_P1;PMS_P2;Temp;Humidity;BMP_temperature;BMP_pressure;BME280_temperature;BME280_humidity;BME280_pressure;Samples;Min_cycle;Max_cycle;Signal;HPM_P1;HPM_P2
2022/09/04 00:02:04;;;;;;;6.50;2.13;;;17.00;96.90;;;;;;5108935;28;20188;-83
2022/09/04 00:04:55;;;;;;;5.13;2.08;;;17.00;97.00;;;;;;5111338;28;20051;-82
2022/09/04 00:07:27;;;;;;;5.65;2.35;;;16.90;97.00;;;;;;5113098;28;20039;-83
2022/09/04 00:10:02;;;;;;;5.97;2.42;;;16.90;97.00;;;;;;5110922;28;20396;-83
2022/09/04 00:12:39;;;;;;;4.95;2.28;;;16.90;97.10;;;;;;5110508;28;20069;-83
2022/09/04 00:15:20;;;;;;;5.72;2.25;;;16.90;97.10;;;;;;5110944;28;20122;-83
2022/09/04 00:17:50;;;;;;;5.75;2.13;;;16.90;97.30;;;;;;5110990;28;20039;-84
2022/09/04 00:20:31;;;;;;;4.97;2.53;;;16.90;97.10;;;;;;5112607;28;20075;-83
2022/09/04 00:23:28;;;;;;;5.05;2.15;;;16.80;97.20;;;;;;5111792;28;20441;-84
2022/09/04 00:26:25;;;;;;;5.40;2.35;;;16.80;97.10;;;;;;5080715;28;20063;-83
2022/09/04 00:28:57;;;;;;;6.28;2.55;;;16.80;97.20;;;;;;5104589;28;20051;-83
2022/09/04 00:31:49;;;;;;;6.10;2.30;;;16.70;97.40;;;;;;5110670;28;20036;-83
2022/09/04 00:34:46;;;;;;;4.65;2.20;;;16.70;97.50;;;;;;5102166;28;20141;-83
2022/09/04 00:37:20;;;;;;;6.72;2.17;;;16.70;97.50;;;;;;5112726;28;20422;-84
2022/09/04 00:40:07;;;;;;;5.50;2.28;;;16.60;97.70;;;;;;5112269;28;20067;-83
2022/09/04 00:43:02;;;;;;;4.60;2.10;;;16.70;97.90;;;;;;5110257;28;20035;-84
2022/09/04 00:45:40;;;;;;;5.28;2.10;;;16.60;97.90;;;;;;5110067;28;20104;-84
2022/09/04 00:48:11;;;;;;;5.65;2.30;;;16.60;98.10;;;;;;5109588;28;20056;-83
2022/09/04 00:50:54;;;;;;;5.65;2.30;;;16.50;98.30;;;;;;5112555;28;20046;-83
2022/09/04 00:53:38;;;;;;;4.85;2.30;;;16.50;98.10;;;;;;5112431;28;20114;-83
2022/09/04 00:56:16;;;;;;;7.13;2.60;;;16.50;98.20;;;;;;5091710;28;20050;-83
2022/09/04 00:59:09;;;;;;;6.50;2.50;;;16.50;98.30;;;;;;5111425;28;20047;-84
2022/09/04 01:01:35;;;;;;;7.00;2.38;;;16.40;98.40;;;;;;5109750;28;20056;-83
2022/09/04 01:04:06;;;;;;;5.07;2.30;;;16.30;98.60;;;;;;5108718;28;20551;-84
2022/09/04 01:06:56;;;;;;;5.43;2.63;;;16.30;98.80;;;;;;5110744;28;20047;-83
2022/09/04 01:09:46;;;;;;;5.25;2.47;;;16.30;98.50;;;;;;5110904;28;20055;-83
2022/09/04 01:12:28;;;;;;;6.93;2.53;;;16.30;98.70;;;;;;5108740;28;20039;-83
2022/09/04 01:15:13;;;;;;;6.80;2.42;;;16.30;98.90;;;;;;5110863;28;20039;-84
2022/09/04 01:18:12;;;;;;;5.93;2.47;;;16.30;99.00;;;;;;5111237;28;20103;-83
2022/09/04 01:21:09;;;;;;;4.82;2.45;;;16.30;99.00;;;;;;5109405;28;20105;-83
2022/09/04 01:23:51;;;;;;;5.40;2.50;;;16.20;99.10;;;;;;5111222;28;20052;-83
2022/09/04 01:26:47;;;;;;;5.47;2.33;;;16.20;99.10;;;;;;5090316;28;20035;-84
2022/09/04 01:29:51;;;;;;;5.15;2.40;;;16.20;99.40;;;;;;5108734;28;20079;-84
2022/09/04 01:32:28;;;;;;;6.15;2.50;;;16.10;99.50;;;;;;5109675;28;20400;-83
2022/09/04 01:35:10;;;;;;;4.78;2.30;;;16.10;99.60;;;;;;5108988;28;20043;-84
2022/09/04 01:37:51;;;;;;;4.05;2.25;;;16.00;99.70;;;;;;5110243;28;20396;-84
2022/09/04 01:40:46;;;;;;;5.10;2.50;;;16.00;99.90;;;;;;5109343;28;20044;-84
2022/09/04 01:43:19;;;;;;;5.85;2.30;;;16.00;99.90;;;;;;5091231;28;20437;-84
2022/09/04 01:45:54;;;;;;;6.47;2.70;;;16.00;99.90;;;;;;5108790;28;20165;-83
2022/09/04 01:48:45;;;;;;;5.15;2.60;;;16.00;99.90;;;;;;5109241;28;20140;-83
2022/09/04 01:51:33;;;;;;;6.82;2.90;;;15.90;99.90;;;;;;5095733;28;20384;-83
2022/09/04 01:54:37;;;;;;;6.63;2.40;;;15.90;99.90;;;;;;5107933;28;20126;-84
2022/09/04 01:57:23;;;;;;;6.13;2.45;;;15.90;99.90;;;;;;5104762;28;20143;-84
2022/09/04 01:59:49;;;;;;;6.28;2.60;;;15.80;99.90;;;;;;5090969;28;20048;-84
2022/09/04 02:02:24;;;;;;;6.05;2.50;;;15.80;99.90;;;;;;5108526;28;20047;-83
2022/09/04 02:05:07;;;;;;;7.75;2.80;;;15.80;99.90;;;;;;5108173;28;20442;-83
2022/09/04 02:07:39;;;;;;;9.07;2.63;;;15.70;99.90;;;;;;5109594;28;20086;-84
2022/09/04 02:10:21;;;;;;;6.00;2.63;;;15.70;99.90;;;;;;5089979;28;20093;-84
2022/09/04 02:12:54;;;;;;;7.45;2.95;;;15.70;99.90;;;;;;5093749;28;20396;-83
2022/09/04 02:15:42;;;;;;;7.68;2.90;;;15.60;99.90;;;;;;5108630;28;20127;-83
2022/09/04 02:18:23;;;;;;;6.38;2.90;;;15.60;99.90;;;;;;5108556;28;20065;-84
2022/09/04 02:21:05;;;;;;;6.70;2.80;;;15.60;99.90;;;;;;5091674;28;20051;-83
2022/09/04 02:23:43;;;;;;;7.47;3.20;;;15.60;99.90;;;;;;5109701;28;20126;-83
2022/09/04 02:26:43;;;;;;;6.55;2.80;;;15.50;99.90;;;;;;5107484;28;20035;-83
2022/09/04 02:29:15;;;;;;;5.70;2.50;;;15.50;99.90;;;;;;5073904;28;20048;-83
2022/09/04 02:31:59;;;;;;;5.88;2.67;;;15.50;99.90;;;;;;5108189;28;20438;-83
2022/09/04 02:35:08;;;;;;;5.95;2.70;;;15.50;99.90;;;;;;5108986;28;20040;-83
2022/09/04 02:37:43;;;;;;;6.60;2.70;;;15.50;99.90;;;;;;5047070;28;20052;-84
2022/09/04 02:40:26;;;;;;;6.57;2.50;;;15.50;99.90;;;;;;5029464;28;20355;-84
2022/09/04 02:43:18;;;;;;;7.45;3.00;;;15.40;99.90;;;;;;5029510;28;20061;-83
2022/09/04 02:45:47;;;;;;;7.35;3.03;;;15.40;99.90;;;;;;5012918;28;20099;-84
2022/09/04 02:48:33;;;;;;;5.85;2.80;;;15.40;99.90;;;;;;5046953;28;20056;-84
2022/09/04 02:51:17;;;;;;;6.40;2.70;;;15.40;99.90;;;;;;5029567;28;20041;-83
2022/09/04 02:54:16;;;;;;;6.55;2.92;;;15.30;99.90;;;;;;5046290;28;20429;-84
2022/09/04 02:56:57;;;;;;;5.68;2.80;;;15.30;99.90;;;;;;5046109;28;20049;-84
2022/09/04 02:59:53;;;;;;;8.30;2.83;;;15.30;99.90;;;;;;5012504;28;20049;-83
2022/09/04 03:03:00;;;;;;;8.00;3.13;;;15.20;99.90;;;;;;5029471;28;20056;-84
2022/09/04 03:05:32;;;;;;;8.48;3.33;;;15.20;99.90;;;;;;5017593;28;20103;-83
2022/09/04 03:08:19;;;;;;;5.70;2.72;;;15.10;99.90;;;;;;5056387;28;20067;-83
2022/09/04 03:10:55;;;;;;;7.47;3.00;;;15.10;99.90;;;;;;5087442;28;20043;-83
2022/09/04 03:13:40;;;;;;;7.22;3.03;;;15.10;99.90;;;;;;5071305;28;20032;-84
2022/09/04 03:16:14;;;;;;;5.78;2.80;;;15.10;99.90;;;;;;5079125;28;20047;-83
2022/09/04 03:19:02;;;;;;;6.20;2.80;;;15.10;99.90;;;;;;5109144;28;20093;-83
2022/09/04 03:21:38;;;;;;;6.93;3.13;;;15.10;99.90;;;;;;5107941;28;20054;-83
2022/09/04 03:24:11;;;;;;;6.53;2.70;;;15.10;99.90;;;;;;5070252;28;20404;-84
2022/09/04 03:26:45;;;;;;;6.88;3.22;;;15.10;99.90;;;;;;5106198;28;20399;-83
2022/09/04 03:29:23;;;;;;;6.70;3.17;;;15.10;99.90;;;;;;5107622;28;20051;-83
2022/09/04 03:32:09;;;;;;;6.30;3.15;;;15.00;99.90;;;;;;5108494;28;20540;-84
2022/09/04 03:34:53;;;;;;;11.45;3.17;;;15.00;99.90;;;;;;5108410;28;20531;-83
2022/09/04 03:37:50;;;;;;;7.03;3.35;;;14.90;99.90;;;;;;5095407;28;20040;-83
2022/09/04 03:40:22;;;;;;;6.82;3.20;;;14.90;99.90;;;;;;5111699;28;20401;-84
2022/09/04 03:43:18;;;;;;;7.43;3.40;;;14.90;99.90;;;;;;5110796;28;20407;-83
2022/09/04 03:46:04;;;;;;;6.95;3.30;;;14.90;99.90;;;;;;5113039;28;20044;-83
2022/09/04 03:49:02;;;;;;;6.28;2.90;;;14.80;99.90;;;;;;5034159;28;20075;-83
2022/09/04 03:51:37;;;;;;;7.47;3.15;;;14.80;99.90;;;;;;5105907;28;20507;-84
2022/09/04 03:54:11;;;;;;;6.63;3.50;;;14.70;99.90;;;;;;5093641;28;20331;-84
2022/09/04 03:57:21;;;;;;;7.45;3.25;;;14.70;99.90;;;;;;5094005;28;20392;-84
2022/09/04 04:00:06;;;;;;;8.27;3.47;;;14.70;99.90;;;;;;5090249;28;20381;-83
2022/09/04 04:02:56;;;;;;;6.35;3.45;;;14.60;99.90;;;;;;5111762;28;20465;-83
2022/09/04 04:05:38;;;;;;;7.03;3.30;;;14.60;99.90;;;;;;5093889;28;20065;-83
2022/09/04 04:08:19;;;;;;;7.38;3.70;;;14.60;99.90;;;;;;5092422;28;20044;-84
2022/09/04 04:11:23;;;;;;;7.18;3.67;;;14.50;99.90;;;;;;5094465;28;20399;-83
2022/09/04 04:13:56;;;;;;;6.80;3.47;;;14.50;99.90;;;;;;5111232;28;20066;-84
2022/09/04 04:16:30;;;;;;;6.50;3.40;;;14.50;99.90;;;;;;5111970;28;20039;-84
2022/09/04 04:19:09;;;;;;;7.97;3.78;;;14.50;99.90;;;;;;5110698;28;20040;-83
2022/09/04 04:22:06;;;;;;;8.93;3.53;;;14.40;99.90;;;;;;5110632;28;20732;-83
2022/09/04 04:24:56;;;;;;;6.85;3.70;;;14.40;99.90;;;;;;5092233;28;20057;-84
2022/09/04 04:28:06;;;;;;;9.02;3.90;;;14.30;99.90;;;;;;5091047;28;20044;-83
2022/09/04 04:30:51;;;;;;;8.35;3.72;;;14.30;99.90;;;;;;5092435;28;20400;-83
2022/09/04 04:33:57;;;;;;;7.15;3.65;;;14.30;99.90;;;;;;5092633;28;20074;-84
2022/09/04 04:36:39;;;;;;;7.18;3.60;;;14.30;99.90;;;;;;4993979;28;20452;-84
2022/09/04 04:39:11;;;;;;;8.05;4.22;;;14.20;99.90;;;;;;5000553;28;20351;-83
2022/09/04 04:42:05;;;;;;;7.40;3.72;;;14.20;99.90;;;;;;5012606;28;20403;-83
2022/09/04 04:47:58;;;;;;;10.98;4.50;;;14.10;99.90;;;;;;5011435;28;20057;-83
2022/09/04 04:50:49;;;;;;;12.15;3.95;;;14.10;99.90;;;;;;5009200;28;20209;-83
2022/09/04 04:53:45;;;;;;;11.40;3.90;;;14.10;99.90;;;;;;5009397;28;20106;-83
2022/09/04 04:56:27;;;;;;;9.43;4.25;;;14.10;99.90;;;;;;5027411;28;20049;-83
2022/09/04 04:59:08;;;;;;;10.77;4.20;;;14.20;99.90;;;;;;5027849;28;20037;-84
2022/09/04 05:01:55;;;;;;;10.65;4.88;;;14.10;99.90;;;;;;5012199;28;20063;-85
2022/09/04 05:05:01;;;;;;;10.18;4.32;;;14.10;99.90;;;;;;5027913;28;20133;-84
2022/09/04 05:07:40;;;;;;;11.02;4.45;;;14.10;99.90;;;;;;4994186;28;20132;-84
2022/09/04 05:10:19;;;;;;;12.00;4.40;;;14.10;99.90;;;;;;5038172;28;20063;-86
2022/09/04 05:12:59;;;;;;;11.15;4.55;;;14.10;99.90;;;;;;5110721;28;20388;-84
2022/09/04 05:15:39;;;;;;;9.18;4.18;;;14.10;99.90;;;;;;5090108;28;20036;-85
2022/09/04 05:18:18;;;;;;;9.23;4.07;;;14.10;99.90;;;;;;5108850;28;20058;-83
2022/09/04 05:20:58;;;;;;;11.40;4.68;;;14.10;99.90;;;;;;5111458;28;20055;-83
2022/09/04 05:23:47;;;;;;;8.45;4.30;;;14.10;99.90;;;;;;5108808;28;20396;-83
2022/09/04 05:26:22;;;;;;;8.40;4.47;;;14.20;99.90;;;;;;5109928;27;20090;-84
2022/09/04 05:28:58;;;;;;;7.63;4.20;;;14.20;99.90;;;;;;5097993;28;20134;-84
2022/09/04 05:31:39;;;;;;;10.50;4.82;;;14.20;99.90;;;;;;5107887;28;20168;-83
2022/09/04 05:34:25;;;;;;;8.02;4.32;;;14.30;99.90;;;;;;5108548;28;20047;-83
2022/09/04 05:37:12;;;;;;;10.95;4.60;;;14.30;99.90;;;;;;5088640;28;20040;-83
2022/09/04 05:39:59;;;;;;;9.63;4.80;;;14.30;99.90;;;;;;5106917;28;20078;-83
2022/09/04 05:42:40;;;;;;;14.15;4.65;;;14.40;99.90;;;;;;5082703;28;20047;-83
2022/09/04 05:45:23;;;;;;;11.45;4.53;;;14.40;99.90;;;;;;5110433;28;20396;-83
2022/09/04 05:47:55;;;;;;;9.38;4.25;;;14.50;99.90;;;;;;5107873;28;20075;-83
2022/09/04 05:50:26;;;;;;;9.68;4.47;;;14.60;99.90;;;;;;5111350;28;20093;-82
2022/09/04 05:53:16;;;;;;;11.48;4.43;;;14.70;99.90;;;;;;5108221;28;20070;-83
2022/09/04 05:56:01;;;;;;;9.75;4.95;;;14.70;99.90;;;;;;5109485;28;20054;-83
2022/09/04 05:59:04;;;;;;;12.13;4.20;;;14.80;99.90;;;;;;5111324;28;20043;-83
2022/09/04 06:01:30;;;;;;;7.25;3.85;;;14.90;99.90;;;;;;5107852;28;20083;-83
2022/09/04 06:04:14;;;;;;;7.25;4.25;;;15.00;99.90;;;;;;5109931;28;20083;-82
2022/09/04 06:07:08;;;;;;;7.45;4.35;;;15.10;99.90;;;;;;5108147;28;20047;-82
2022/09/04 06:09:58;;;;;;;7.10;3.38;;;15.20;99.90;;;;;;5109392;28;20038;-83
2022/09/04 06:12:51;;;;;;;7.90;4.18;;;15.30;99.90;;;;;;5092456;28;20048;-83
2022/09/04 06:15:31;;;;;;;7.82;4.03;;;15.40;99.90;;;;;;5107501;28;20050;-83
2022/09/04 06:18:23;;;;;;;7.45;4.05;;;15.50;99.90;;;;;;5107052;28;20496;-84
2022/09/04 06:21:17;;;;;;;6.85;4.00;;;15.60;99.90;;;;;;5090028;28;20048;-84
2022/09/04 06:24:02;;;;;;;10.50;4.05;;;15.70;99.90;;;;;;5088047;28;20127;-82
2022/09/04 06:26:39;;;;;;;7.72;4.20;;;15.70;99.90;;;;;;5088914;28;20054;-84
2022/09/04 06:29:18;;;;;;;6.78;4.15;;;15.80;99.90;;;;;;5090366;28;20076;-84
2022/09/04 06:32:10;;;;;;;9.52;3.90;;;15.80;99.90;;;;;;5108557;28;20051;-84
2022/09/04 06:34:45;;;;;;;8.80;3.85;;;15.90;99.90;;;;;;5108552;28;20069;-83
2022/09/04 06:37:43;;;;;;;8.82;4.03;;;15.90;99.90;;;;;;5108389;28;20048;-83
2022/09/04 06:40:35;;;;;;;10.35;4.03;;;16.00;99.90;;;;;;5108509;28;20130;-83
2022/09/04 06:43:18;;;;;;;5.85;3.42;;;16.00;99.90;;;;;;5084494;28;20381;-84
2022/09/04 06:46:03;;;;;;;6.90;3.75;;;16.10;99.90;;;;;;5106573;28;20050;-84
2022/09/04 06:48:40;;;;;;;10.05;4.30;;;16.10;99.90;;;;;;5091285;28;20043;-84
2022/09/04 06:51:29;;;;;;;7.65;3.90;;;16.20;99.90;;;;;;5106303;28;20043;-86
2022/09/04 06:54:33;;;;;;;10.18;4.40;;;16.30;99.90;;;;;;5108008;28;20044;-83
2022/09/04 06:57:21;;;;;;;9.55;4.90;;;16.30;99.90;;;;;;5029474;28;20092;-83
2022/09/04 07:00:04;;;;;;;8.80;4.43;;;16.40;99.90;;;;;;5043313;28;20063;-83
2022/09/04 07:02:36;;;;;;;9.07;5.07;;;16.50;99.90;;;;;;5026550;28;20065;-84
2022/09/04 07:05:24;;;;;;;8.90;4.65;;;16.60;99.90;;;;;;5009687;28;20068;-86
2022/09/04 07:08:37;;;;;;;7.72;4.63;;;16.70;99.90;;;;;;5010901;28;20053;-86
2022/09/04 07:11:27;;;;;;;10.45;5.07;;;16.60;99.90;;;;;;4947023;28;20051;-87
2022/09/04 07:14:18;;;;;;;8.30;4.55;;;16.70;99.90;;;;;;4937745;28;20054;-89
2022/09/04 07:17:02;;;;;;;7.45;4.28;;;16.80;99.90;;;;;;4950938;28;20043;-86
2022/09/04 07:20:02;;;;;;;8.23;4.22;;;16.90;99.90;;;;;;4935449;29;20047;-88
2022/09/04 07:22:46;;;;;;;9.07;4.32;;;17.00;99.90;;;;;;4933987;29;20059;-92
2022/09/04 07:25:39;;;;;;;8.23;3.90;;;17.20;99.90;;;;;;4949020;28;20059;-87
2022/09/04 07:28:36;;;;;;;6.70;4.07;;;17.20;99.90;;;;;;4948186;28;20290;-88
2022/09/04 07:31:33;;;;;;;8.18;4.20;;;17.40;99.90;;;;;;4933045;28;20047;-87
2022/09/04 07:34:25;;;;;;;8.93;4.15;;;17.50;99.90;;;;;;4952672;28;20055;-87
2022/09/04 07:37:08;;;;;;;7.60;3.58;;;17.60;99.90;;;;;;4964266;28;20093;-85
2022/09/04 07:39:56;;;;;;;7.50;3.50;;;17.70;99.90;;;;;;4963038;28;20081;-85
2022/09/04 07:42:30;;;;;;;7.03;3.78;;;17.80;99.90;;;;;;4934758;29;20129;-85
2022/09/04 07:45:03;;;;;;;7.70;3.42;;;17.80;99.90;;;;;;4965827;28;20055;-88
2022/09/04 07:47:43;;;;;;;6.78;3.45;;;18.00;99.90;;;;;;4996938;28;20053;-87
2022/09/04 07:50:12;;;;;;;7.18;3.40;;;18.10;99.90;;;;;;5013781;28;20049;-86
2022/09/04 07:53:08;;;;;;;6.97;3.42;;;18.10;99.90;;;;;;5046014;28;20484;-83
2022/09/04 07:55:47;;;;;;;6.63;3.38;;;18.20;99.90;;;;;;5042297;28;20037;-83
2022/09/04 07:58:50;;;;;;;6.97;3.25;;;18.30;99.90;;;;;;5026355;28;20053;-83
2022/09/04 08:01:22;;;;;;;6.03;3.58;;;18.40;99.90;;;;;;4987408;28;20058;-83
2022/09/04 08:04:05;;;;;;;8.23;3.67;;;18.50;99.90;;;;;;5008746;28;20177;-82
2022/09/04 08:06:41;;;;;;;7.30;3.20;;;18.60;99.90;;;;;;5026541;28;20057;-83
2022/09/04 08:09:28;;;;;;;6.47;3.10;;;18.60;99.90;;;;;;5025635;28;20041;-83
2022/09/04 08:12:06;;;;;;;7.20;3.33;;;18.70;99.90;;;;;;5080097;28;20062;-83
2022/09/04 08:15:09;;;;;;;7.82;3.50;;;18.80;99.90;;;;;;5070685;28;20074;-83
2022/09/04 08:17:53;;;;;;;7.57;3.50;;;18.90;99.90;;;;;;5095291;28;20119;-83
2022/09/04 08:20:43;;;;;;;7.85;3.30;;;19.00;99.90;;;;;;5108039;28;20114;-84
2022/09/04 08:23:28;;;;;;;5.68;3.20;;;19.00;99.90;;;;;;5111352;28;20051;-82
2022/09/04 08:26:20;;;;;;;7.05;3.10;;;19.10;99.90;;;;;;5110713;28;20122;-83
2022/09/04 08:28:55;;;;;;;7.15;3.05;;;19.20;99.90;;;;;;5111138;28;20048;-84
2022/09/04 08:32:02;;;;;;;6.53;3.10;;;19.20;99.90;;;;;;5111539;28;20044;-82
2022/09/04 08:34:37;;;;;;;6.88;3.33;;;19.30;99.90;;;;;;5032900;28;20049;-84
2022/09/04 08:37:23;;;;;;;7.15;3.20;;;19.40;99.90;;;;;;5032279;28;20144;-84
2022/09/04 08:40:42;;;;;;;6.78;3.20;;;19.50;99.90;;;;;;5030865;28;20053;-83
2022/09/04 08:43:26;;;;;;;7.45;3.00;;;19.60;99.90;;;;;;4968709;28;20062;-82
2022/09/04 08:46:17;;;;;;;6.60;2.90;;;19.70;99.90;;;;;;4953626;28;20058;-83
2022/09/04 08:49:18;;;;;;;5.93;3.05;;;19.70;99.90;;;;;;4953929;28;20059;-83
2022/09/04 08:52:01;;;;;;;6.40;3.10;;;19.80;99.90;;;;;;4954778;28;20058;-83
2022/09/04 08:54:55;;;;;;;6.22;3.40;;;19.90;99.90;;;;;;4954808;28;20057;-84
2022/09/04 08:57:38;;;;;;;8.93;3.20;;;20.00;99.90;;;;;;4953845;28;20186;-83
2022/09/04 09:00:16;;;;;;;5.90;2.90;;;20.10;99.90;;;;;;4969628;28;20887;-83
2022/09/04 09:03:06;;;;;;;7.35;3.10;;;20.20;99.90;;;;;;4969831;28;20523;-83
2022/09/04 09:06:07;;;;;;;5.85;3.08;;;20.30;99.90;;;;;;5004827;28;20073;-83
2022/09/04 09:09:10;;;;;;;6.45;3.05;;;20.30;99.90;;;;;;5008166;28;20096;-83
2022/09/04 09:11:54;;;;;;;5.88;3.30;;;20.40;99.90;;;;;;4981679;28;20048;-83
2022/09/04 09:14:48;;;;;;;5.68;2.80;;;20.50;99.90;;;;;;5081845;28;20135;-83
2022/09/04 09:17:36;;;;;;;6.43;2.90;;;20.60;99.90;;;;;;5109757;28;20094;-83
2022/09/04 09:20:27;;;;;;;6.53;3.25;;;20.70;99.90;;;;;;5099266;28;20083;-83
2022/09/04 09:23:15;;;;;;;5.10;2.70;;;20.80;99.90;;;;;;5092165;28;20044;-83
2022/09/04 09:25:51;;;;;;;5.97;3.10;;;20.90;99.90;;;;;;5110545;28;20074;-83
2022/09/04 09:28:53;;;;;;;7.60;2.67;;;21.00;99.90;;;;;;5110487;28;20043;-82
2022/09/04 09:31:34;;;;;;;5.82;2.63;;;21.10;99.90;;;;;;5111374;28;20048;-84
2022/09/04 09:34:25;;;;;;;6.72;2.88;;;21.10;99.90;;;;;;5109912;28;20088;-82
2022/09/04 09:37:10;;;;;;;4.68;2.25;;;21.20;99.90;;;;;;5108395;28;20048;-83
2022/09/04 09:39:45;;;;;;;4.88;2.70;;;21.30;99.90;;;;;;5110853;28;20097;-83
2022/09/04 09:42:34;;;;;;;6.32;2.63;;;21.40;99.90;;;;;;5102633;28;20033;-83
2022/09/04 09:45:16;;;;;;;6.75;2.63;;;21.50;99.90;;;;;;5101237;28;20464;-85
2022/09/04 09:48:12;;;;;;;7.43;2.72;;;21.60;99.90;;;;;;5073002;28;20044;-86
2022/09/04 09:50:52;;;;;;;5.63;2.80;;;21.70;99.90;;;;;;5072992;28;20114;-86
2022/09/04 09:53:49;;;;;;;5.82;2.70;;;21.80;99.50;;;;;;5089678;28;20400;-86
2022/09/04 09:56:24;;;;;;;6.35;2.80;;;21.90;99.90;;;;;;5091006;28;20106;-86
2022/09/04 09:58:53;;;;;;;8.38;2.80;;;21.90;99.90;;;;;;5071841;28;20408;-85
2022/09/04 10:01:24;;;;;;;7.22;2.72;;;22.00;99.50;;;;;;5100929;28;20418;-88
2022/09/04 10:04:10;;;;;;;5.95;2.80;;;22.10;98.90;;;;;;5090385;28;20429;-86
2022/09/04 10:07:09;;;;;;;5.70;2.60;;;22.20;98.70;;;;;;5090436;28;20074;-86
2022/09/04 10:09:41;;;;;;;3.97;2.25;;;22.30;98.40;;;;;;5090662;28;20052;-88
2022/09/04 10:12:38;;;;;;;5.93;2.42;;;22.40;98.40;;;;;;5088157;28;20539;-86
2022/09/04 10:15:23;;;;;;;6.72;2.53;;;22.40;98.60;;;;;;5087778;28;20071;-86
2022/09/04 10:18:13;;;;;;;4.25;2.30;;;22.50;98.10;;;;;;5089995;28;20040;-87
2022/09/04 10:21:19;;;;;;;5.72;2.60;;;22.50;97.80;;;;;;5105193;28;20073;-89
2022/09/04 10:24:06;;;;;;;4.90;2.50;;;22.50;97.70;;;;;;5091573;28;20052;-85
2022/09/04 10:26:47;;;;;;;6.25;2.70;;;22.60;97.80;;;;;;5109471;28;20445;-87
2022/09/04 10:29:35;;;;;;;6.03;2.55;;;22.60;98.00;;;;;;5108366;28;20039;-87
2022/09/04 10:32:31;;;;;;;5.60;2.25;;;22.70;97.70;;;;;;5108092;28;20071;-87
2022/09/04 10:35:09;;;;;;;6.00;2.35;;;22.80;97.50;;;;;;5099063;28;20047;-86
2022/09/04 10:38:07;;;;;;;4.50;2.28;;;22.80;97.00;;;;;;5092331;28;20093;-88
2022/09/04 10:41:07;;;;;;;5.65;2.50;;;22.90;97.80;;;;;;5108585;28;20051;-86
2022/09/04 10:43:52;;;;;;;6.90;2.35;;;23.00;97.80;;;;;;5091559;28;20043;-86
2022/09/04 10:46:27;;;;;;;4.97;2.60;;;23.00;97.60;;;;;;5108509;28;20039;-89
2022/09/04 10:48:55;;;;;;;4.95;2.30;;;23.20;97.50;;;;;;5108133;28;20267;-90
2022/09/04 10:51:46;;;;;;;4.43;2.35;;;23.20;97.40;;;;;;5109224;28;20116;-86
2022/09/04 10:54:43;;;;;;;4.90;2.70;;;23.30;97.40;;;;;;5107458;28;20379;-87
2022/09/04 10:57:36;;;;;;;5.90;2.67;;;23.30;97.00;;;;;;5109220;28;20412;-90
2022/09/04 11:00:06;;;;;;;6.72;2.65;;;23.30;97.20;;;;;;5107994;28;20053;-87
2022/09/04 11:03:03;;;;;;;6.60;2.45;;;23.40;97.20;;;;;;5108382;28;20055;-87
2022/09/04 11:06:01;;;;;;;5.32;2.45;;;23.40;97.20;;;;;;5109956;28;20085;-86
2022/09/04 11:09:03;;;;;;;7.57;2.70;;;23.50;97.10;;;;;;5110361;28;20056;-86
2022/09/04 11:11:51;;;;;;;7.47;2.60;;;23.60;96.50;;;;;;5108263;28;20039;-87
2022/09/04 11:14:54;;;;;;;4.75;2.20;;;23.70;97.00;;;;;;5091676;28;20137;-88
2022/09/04 11:17:42;;;;;;;5.32;2.40;;;23.80;97.30;;;;;;5108809;28;20046;-89
2022/09/04 11:20:40;;;;;;;5.95;2.42;;;23.80;96.70;;;;;;5108523;28;20079;-86
2022/09/04 11:23:31;;;;;;;5.90;2.80;;;23.90;96.60;;;;;;5044633;28;20052;-87
2022/09/04 11:26:38;;;;;;;7.60;2.55;;;23.90;97.00;;;;;;5045542;28;20045;-87
2022/09/04 11:29:22;;;;;;;4.20;2.25;;;23.90;97.00;;;;;;5030229;28;20705;-88
2022/09/04 11:32:03;;;;;;;4.68;2.47;;;24.00;97.00;;;;;;5030005;28;20045;-87
2022/09/04 11:34:45;;;;;;;5.05;2.50;;;24.10;96.90;;;;;;5030571;28;20083;-86
2022/09/04 11:37:38;;;;;;;5.30;2.70;;;24.20;96.60;;;;;;5030693;28;20467;-86
2022/09/04 11:40:33;;;;;;;5.90;2.50;;;24.20;96.80;;;;;;5044919;28;20217;-89
2022/09/04 11:43:14;;;;;;;5.22;2.25;;;24.20;96.80;;;;;;5028687;28;20091;-87
2022/09/04 11:46:06;;;;;;;5.00;2.42;;;24.20;96.30;;;;;;5030205;28;20056;-86
2022/09/04 11:49:12;;;;;;;6.00;2.47;;;24.30;96.90;;;;;;5030287;28;20052;-89
2022/09/04 11:51:59;;;;;;;4.82;2.40;;;24.20;96.80;;;;;;5030606;28;20037;-87
2022/09/04 11:54:50;;;;;;;5.25;2.40;;;24.30;96.30;;;;;;5013870;28;20506;-86
2022/09/04 11:57:53;;;;;;;4.70;2.42;;;24.30;96.00;;;;;;5015606;28;20045;-86
2022/09/04 12:00:19;;;;;;;4.82;2.30;;;24.40;96.00;;;;;;5089599;28;20185;-88
2022/09/04 12:03:12;;;;;;;4.60;2.30;;;24.40;95.70;;;;;;5112491;28;20131;-85
2022/09/04 12:05:48;;;;;;;5.05;2.40;;;24.40;95.40;;;;;;5112260;28;20040;-88
2022/09/04 12:08:34;;;;;;;5.32;2.30;;;24.40;96.00;;;;;;5111938;28;20426;-89
2022/09/04 12:11:30;;;;;;;4.95;2.30;;;24.50;96.20;;;;;;5110939;28;20047;-86
2022/09/04 12:14:07;;;;;;;5.53;2.50;;;24.50;95.40;;;;;;5112590;28;20055;-88
2022/09/04 12:16:40;;;;;;;5.53;2.67;;;24.60;96.00;;;;;;5111718;28;20070;-86
2022/09/04 12:19:21;;;;;;;4.30;2.40;;;24.60;95.60;;;;;;5111496;28;20055;-88
2022/09/04 12:22:08;;;;;;;5.05;2.40;;;24.60;95.30;;;;;;5094082;28;20071;-88
2022/09/04 12:24:54;;;;;;;5.07;2.40;;;24.70;95.60;;;;;;5112402;28;20050;-88
2022/09/04 12:27:55;;;;;;;4.57;2.40;;;24.70;95.80;;;;;;5111743;28;20099;-89
2022/09/04 12:30:47;;;;;;;6.22;2.55;;;24.70;95.50;;;;;;5094786;28;20044;-86
2022/09/04 12:33:27;;;;;;;4.13;2.33;;;24.80;95.20;;;;;;5111556;28;20438;-88
2022/09/04 12:36:23;;;;;;;7.35;2.92;;;24.80;94.40;;;;;;5107658;28;20044;-88
2022/09/04 12:39:18;;;;;;;4.72;2.17;;;24.80;94.50;;;;;;5092690;28;20426;-88
2022/09/04 12:42:26;;;;;;;4.65;2.28;;;24.80;95.20;;;;;;5111284;28;20136;-89
2022/09/04 12:45:08;;;;;;;5.22;2.50;;;24.80;94.00;;;;;;5110345;28;20047;-87
2022/09/04 12:47:46;;;;;;;5.53;2.40;;;24.80;94.40;;;;;;5111286;28;20122;-89
2022/09/04 12:50:21;;;;;;;5.20;2.30;;;24.80;94.60;;;;;;5111003;28;20097;-86
2022/09/04 12:53:09;;;;;;;4.93;2.47;;;24.80;94.40;;;;;;5109426;28;20056;-88
2022/09/04 12:56:01;;;;;;;5.43;2.30;;;24.80;94.40;;;;;;5111330;28;20036;-88
2022/09/04 12:58:33;;;;;;;6.47;2.40;;;24.90;94.50;;;;;;5111489;28;20048;-87
2022/09/04 13:01:18;;;;;;;4.20;2.10;;;24.90;94.00;;;;;;5093292;28;20127;-88
2022/09/04 13:04:07;;;;;;;4.22;2.50;;;24.90;94.00;;;;;;5094105;28;20432;-90
2022/09/04 13:06:41;;;;;;;5.68;2.60;;;24.90;93.60;;;;;;5095998;28;20295;-88
2022/09/04 13:09:16;;;;;;;5.03;2.53;;;25.00;93.80;;;;;;5109434;28;20048;-89
2022/09/04 13:11:44;;;;;;;6.05;2.67;;;25.00;93.60;;;;;;5094055;28;20047;-87
2022/09/04 13:14:44;;;;;;;4.53;2.30;;;25.00;93.60;;;;;;5110544;28;20485;-86
2022/09/04 13:17:31;;;;;;;4.60;2.60;;;25.10;92.70;;;;;;5093843;28;20043;-88
2022/09/04 13:20:14;;;;;;;3.88;2.50;;;25.10;92.90;;;;;;5110798;28;20043;-87
2022/09/04 13:22:44;;;;;;;4.75;2.40;;;25.10;93.00;;;;;;5109277;28;20048;-87
2022/09/04 13:25:31;;;;;;;4.82;2.47;;;25.10;93.00;;;;;;5093288;28;20507;-87
2022/09/04 13:28:22;;;;;;;5.82;2.65;;;25.10;93.00;;;;;;5109402;28;20044;-87
2022/09/04 13:31:18;;;;;;;4.47;2.50;;;25.10;92.50;;;;;;5109872;28;20130;-89
2022/09/04 13:34:05;;;;;;;5.88;2.63;;;25.10;93.20;;;;;;5110146;28;20050;-89
2022/09/04 13:36:56;;;;;;;4.95;2.53;;;25.10;92.90;;;;;;5108876;28;20096;-91
2022/09/04 13:39:40;;;;;;;5.20;2.80;;;25.10;92.90;;;;;;5092679;28;20093;-89
2022/09/04 13:42:25;;;;;;;5.82;2.97;;;25.10;92.60;;;;;;5109243;28;20044;-88
2022/09/04 13:45:00;;;;;;;5.88;3.00;;;25.10;93.10;;;;;;5109146;28;20055;-89
2022/09/04 13:47:36;;;;;;;5.28;2.60;;;25.20;92.80;;;;;;5093761;28;20059;-89
2022/09/04 13:50:08;;;;;;;5.80;2.60;;;25.20;92.90;;;;;;5109281;28;20169;-87
2022/09/04 13:52:54;;;;;;;5.63;2.83;;;25.20;92.90;;;;;;5108783;28;20070;-86
2022/09/04 13:55:36;;;;;;;5.00;2.80;;;25.20;92.50;;;;;;5109852;28;20504;-87
2022/09/04 13:58:26;;;;;;;5.97;2.78;;;25.40;91.50;;;;;;5109029;28;20306;-88
2022/09/04 14:00:56;;;;;;;5.15;2.70;;;25.40;91.80;;;;;;5109738;28;20059;-88
2022/09/04 14:03:30;;;;;;;5.87;2.50;;;25.40;92.20;;;;;;5112022;28;20079;-87
2022/09/04 14:05:56;;;;;;;5.82;2.95;;;25.40;92.30;;;;;;5091247;28;20786;-88
2022/09/04 14:08:23;;;;;;;6.15;2.92;;;25.40;91.80;;;;;;5108866;28;20047;-86
2022/09/04 14:11:22;;;;;;;6.53;2.90;;;25.50;92.10;;;;;;5110329;28;20047;-86
2022/09/04 14:14:22;;;;;;;4.10;2.42;;;25.50;92.00;;;;;;5108284;28;20047;-86
2022/09/04 14:16:49;;;;;;;5.60;2.70;;;25.50;92.40;;;;;;5091926;28;20089;-89
2022/09/04 14:19:41;;;;;;;7.72;3.10;;;25.50;92.60;;;;;;5108472;28;20126;-88
2022/09/04 14:22:40;;;;;;;5.78;2.95;;;25.60;92.50;;;;;;5091268;28;20051;-88
2022/09/04 14:25:24;;;;;;;6.15;2.90;;;25.60;92.10;;;;;;5108635;28;20426;-87